Monday, July 23, 2018, 2:10 AM EDT
Back to Local

KCBE, Cumberland, Greater Cumberland Regional Airport

Location: Wiley Ford, MD, United States Lat: 39.615
Local Time: 2:10 AM EDT ( 6:10 GMT) Lon: -78.761
Time Zone: US/Eastern Elev: 774 ft

Show me the last for .
Show Decoded

2018-07-23 01:56 METAR KCBE 230556Z AUTO 00000KT 10SM BKN017 OVC024 21/21 A2992 RMK AO1 =
2018-07-23 01:36 METAR KCBE 230536Z AUTO 00000KT 10SM OVC018 22/21 A2993 RMK AO1 =
2018-07-23 01:16 METAR KCBE 230516Z AUTO 00000KT 10SM BKN020 OVC027 22/21 A2992 RMK AO1 =
2018-07-23 00:56 METAR KCBE 230456Z AUTO 00000KT 10SM BKN022 BKN027 OVC055 22/21 A2993 RMK AO1 =
2018-07-23 00:36 METAR KCBE 230436Z AUTO 33003KT 10SM BKN024 BKN060 22/21 A2993 RMK AO1 =
2018-07-23 00:16 METAR KCBE 230416Z AUTO 00000KT 10SM SCT024 BKN034 BKN055 22/20 A2994 RMK AO1 =
2018-07-22 23:56 METAR KCBE 230356Z AUTO 00000KT 10SM SCT020 BKN031 BKN038 22/21 A2993 RMK AO1 =
2018-07-22 23:36 METAR KCBE 230336Z AUTO 00000KT 10SM BKN021 BKN026 OVC037 22/20 A2993 RMK AO1 =
2018-07-22 23:16 METAR KCBE 230316Z AUTO 00000KT 10SM BKN021 BKN026 OVC040 22/20 A2993 RMK AO1 =
2018-07-22 22:56 METAR KCBE 230256Z AUTO 32003KT 10SM SCT023 SCT028 BKN038 21/20 A2992 RMK AO1 =
2018-07-22 22:36 METAR KCBE 230236Z AUTO 00000KT 10SM SCT023 SCT029 BKN070 22/20 A2992 RMK AO1 =
2018-07-22 22:16 METAR KCBE 230216Z AUTO 30003KT 10SM SCT033 SCT042 BKN070 22/20 A2992 RMK AO1 =
2018-07-22 21:56 METAR KCBE 230156Z AUTO 30003KT 10SM SCT035 SCT042 BKN070 22/20 A2991 RMK AO1 =
2018-07-22 21:36 METAR KCBE 230136Z AUTO 32003KT 10SM SCT046 BKN060 22/20 A2991 RMK AO1 =
2018-07-22 21:16 METAR KCBE 230116Z AUTO 01003KT 10SM SCT050 SCT060 SCT080 22/20 A2991 RMK AO1 =
2018-07-22 20:56 METAR KCBE 230056Z AUTO 00000KT 10SM SCT029 SCT035 SCT060 22/20 A2991 RMK AO1 =
2018-07-22 20:36 METAR KCBE 230036Z AUTO 04003KT 10SM SCT030 SCT060 22/20 A2991 RMK AO1 =
2018-07-22 20:16 METAR KCBE 230016Z AUTO 00000KT 10SM SCT060 23/20 A2990 RMK AO1 =
2018-07-22 19:56 METAR KCBE 222356Z AUTO 00000KT 10SM CLR 23/20 A2989 RMK AO1 =
2018-07-22 19:36 METAR KCBE 222336Z AUTO 00000KT 10SM SCT026 SCT050 23/20 A2988 RMK AO1 =
2018-07-22 19:16 METAR KCBE 222316Z AUTO 11003KT 10SM SCT022 BKN026 BKN046 24/20 A2989 RMK AO1 =
2018-07-22 18:56 METAR KCBE 222256Z AUTO 10004KT 10SM SCT022 BKN028 BKN035 24/20 A2988 RMK AO1 =
2018-07-22 18:36 METAR KCBE 222236Z AUTO 14003KT 10SM SCT028 SCT048 SCT050 24/20 A2987 RMK AO1 =
2018-07-22 18:16 METAR KCBE 222216Z AUTO 00000KT 10SM SCT030 SCT037 BKN043 24/20 A2987 RMK AO1 =
2018-07-22 17:56 METAR KCBE 222156Z AUTO 11003KT 10SM SCT023 OVC032 23/20 A2987 RMK AO1 =
2018-07-22 17:36 METAR KCBE 222136Z AUTO 17004KT 10SM SCT019 BKN024 BKN030 23/21 A2987 RMK AO1 =
2018-07-22 17:16 METAR KCBE 222116Z AUTO 19003KT 10SM SCT009 SCT026 BKN038 23/21 A2986 RMK AO1 =
2018-07-22 16:56 METAR KCBE 222056Z AUTO 00000KT 10SM SCT008 BKN019 OVC070 22/21 A2986 RMK AO1 =
2018-07-22 16:36 METAR KCBE 222036Z AUTO 18003KT 10SM SCT010 BKN036 OVC041 23/21 A2986 RMK AO1 =
2018-07-22 16:16 METAR KCBE 222016Z AUTO 14004KT 5SM SCT010 BKN028 OVC042 23/20 A2986 RMK AO1 =
2018-07-22 15:56 METAR KCBE 221956Z AUTO 11009KT 10SM SCT028 BKN035 OVC055 24/20 A2985 RMK AO1 =
2018-07-22 15:36 METAR KCBE 221936Z AUTO 11006KT 10SM SCT020 BKN037 OVC047 25/20 A2985 RMK AO1 =
2018-07-22 15:16 METAR KCBE 221916Z AUTO 09007KT 10SM SCT026 BKN031 BKN049 25/20 A2984 RMK AO1 =
2018-07-22 14:56 METAR KCBE 221856Z AUTO 10007KT 10SM SCT028 SCT036 BKN047 26/20 A2984 RMK AO1 =
2018-07-22 14:36 METAR KCBE 221836Z AUTO 10004KT 10SM BKN028 BKN034 BKN046 25/20 A2984 RMK AO1 =
2018-07-22 14:16 METAR KCBE 221816Z AUTO 10004KT 10SM BKN031 BKN037 BKN050 25/20 A2984 RMK AO1 =
2018-07-22 13:56 METAR KCBE 221756Z AUTO 10004KT 10SM SCT026 BKN034 BKN050 25/20 A2985 RMK AO1 =
2018-07-22 13:36 METAR KCBE 221736Z AUTO 00000KT 10SM BKN025 BKN032 OVC039 25/19 A2985 RMK AO1 =
2018-07-22 13:16 METAR KCBE 221716Z AUTO 09006KT 10SM SCT023 BKN030 OVC038 24/19 A2985 RMK AO1 =
2018-07-22 12:56 METAR KCBE 221656Z AUTO 00000KT 10SM SCT023 BKN030 OVC037 23/18 A2985 RMK AO1 =
2018-07-22 12:36 METAR KCBE 221636Z AUTO 15003KT 10SM BKN023 BKN028 23/18 A2986 RMK AO1 =
2018-07-22 12:16 METAR KCBE 221616Z AUTO 00000KT 10SM BKN025 23/18 A2985 RMK AO1 =
2018-07-22 11:56 METAR KCBE 221556Z AUTO 13003KT 10SM SCT019 BKN025 23/18 A2985 RMK AO1 =
2018-07-22 11:36 METAR KCBE 221536Z AUTO 12006KT 10SM OVC018 23/18 A2985 RMK AO1 =
2018-07-22 11:16 METAR KCBE 221516Z AUTO 00000KT 10SM BKN018 22/18 A2985 RMK AO1 =
2018-07-22 10:56 METAR KCBE 221456Z AUTO 09003KT 10SM SCT016 22/18 A2985 RMK AO1 =
2018-07-22 10:36 METAR KCBE 221436Z AUTO 00000KT 10SM SCT013 BKN019 21/17 A2985 RMK AO1 =
2018-07-22 10:16 METAR KCBE 221416Z AUTO 00000KT 10SM OVC013 21/17 A2985 RMK AO1 =
2018-07-22 09:56 METAR KCBE 221356Z AUTO 20003KT 10SM OVC015 21/17 A2985 RMK AO1 =
2018-07-22 09:36 METAR KCBE 221336Z AUTO 15003KT 10SM BKN017 20/17 A2985 RMK AO1 =
2018-07-22 09:16 METAR KCBE 221316Z AUTO 16004KT 10SM OVC017 20/17 A2984 RMK AO1 =
2018-07-22 08:56 METAR KCBE 221256Z AUTO 16004KT 10SM BKN017 20/17 A2983 RMK AO1 =
2018-07-22 08:36 METAR KCBE 221236Z AUTO 00000KT 10SM SCT017 20/17 A2982 RMK AO1 =
2018-07-22 08:16 METAR KCBE 221216Z AUTO 00000KT 10SM BKN017 18/17 A2982 RMK AO1 =
2018-07-22 07:56 METAR KCBE 221156Z AUTO 00000KT 10SM OVC017 18/17 A2981 RMK AO1 =
2018-07-22 07:36 METAR KCBE 221136Z AUTO 00000KT 10SM OVC017 18/17 A2981 RMK AO1 =
2018-07-22 07:16 METAR KCBE 221116Z AUTO 00000KT 10SM OVC019 17/17 A2980 RMK AO1 =
2018-07-22 06:56 METAR KCBE 221056Z AUTO 00000KT 10SM OVC019 17/17 A2980 RMK AO1 =
2018-07-22 06:36 METAR KCBE 221036Z AUTO 00000KT 10SM OVC021 17/17 A2980 RMK AO1 =
2018-07-22 06:16 METAR KCBE 221016Z AUTO 00000KT 10SM OVC021 17/17 A2979 RMK AO1 =
2018-07-22 05:56 METAR KCBE 220956Z AUTO 00000KT 10SM SCT005 OVC021 17/17 A2978 RMK AO1 =
2018-07-22 05:36 METAR KCBE 220936Z AUTO 00000KT 10SM OVC021 17/17 A2978 RMK AO1 =
2018-07-22 05:16 METAR KCBE 220916Z AUTO 00000KT 10SM BKN023 17/17 A2977 RMK AO1 =
2018-07-22 04:56 METAR KCBE 220856Z AUTO 16003KT 10SM BKN023 17/17 A2977 RMK AO1 =
2018-07-22 04:36 METAR KCBE 220836Z AUTO 00000KT 10SM OVC021 17/17 A2976 RMK AO1 =
2018-07-22 04:16 METAR KCBE 220816Z AUTO 00000KT 10SM OVC021 17/17 A2976 RMK AO1 =
2018-07-22 03:56 METAR KCBE 220756Z AUTO 00000KT 10SM OVC021 17/16 A2977 RMK AO1 =
2018-07-22 03:36 METAR KCBE 220736Z AUTO 00000KT 10SM OVC021 17/16 A2978 RMK AO1 =
2018-07-22 03:16 METAR KCBE 220716Z AUTO 00000KT 10SM OVC021 17/16 A2978 RMK AO1 =
2018-07-22 02:56 METAR KCBE 220656Z AUTO 00000KT 10SM SCT005 OVC023 17/16 A2978 RMK AO1 =
2018-07-22 02:36 METAR KCBE 220636Z AUTO 00000KT 10SM SCT005 OVC025 17/16 A2980 RMK AO1 =
2018-07-22 02:16 METAR KCBE 220616Z AUTO 00000KT 10SM OVC025 17/17 A2980 RMK AO1 =

Support USWX by starting your Amazon purchase here.